Alturas, Florida
Current Conditions -  °F | °C
As of 4:50 PM on Friday 24 Oct 2014 (Local Time) from KBOW Reporting Station
Broken Clouds Broken Clouds  
Wind Chill: 77°   Ceiling: 5000
Heat Index: 79°   Visibility: 10mi
Dew Point: 57°   Wind: 10mph
Humidity: 50%   Direction: 60°ENE
Pressure: 29.9"   Gusts: NA
Location:  27.87°N, 81.71°W
Report Text: KBOW 242050Z 06009KT 10SM BKN050 25/14 A2990
Loading
Personal Weather Stations






























Interactive Weather Map
Tropical Storm Tracking
New forecast layout! Learn more

10-Day Weather Forecast

Advertisements
Track Severe Weather on mobile